sensor_id;sensor_type;location;lat;lon;timestamp;pressure;altitude;pressure_sealevel;temperature;humidity
77005;BME280;67261;53.132;18.006;2023-04-01T00:00:53;99101.72;;;10.83;78.27
77005;BME280;67261;53.132;18.006;2023-04-01T00:03:21;99102.27;;;10.81;78.34
77005;BME280;67261;53.132;18.006;2023-04-01T00:05:49;99103.42;;;10.81;78.38
77005;BME280;67261;53.132;18.006;2023-04-01T00:08:17;99103.23;;;10.82;78.41
77005;BME280;67261;53.132;18.006;2023-04-01T00:10:46;99102.23;;;10.82;78.49
77005;BME280;67261;53.132;18.006;2023-04-01T00:13:17;99099.63;;;10.80;78.40
77005;BME280;67261;53.132;18.006;2023-04-01T00:15:44;99100.06;;;10.79;78.55
77005;BME280;67261;53.132;18.006;2023-04-01T00:18:12;99100.21;;;10.78;78.54
77005;BME280;67261;53.132;18.006;2023-04-01T00:20:40;99098.54;;;10.76;78.58
77005;BME280;67261;53.132;18.006;2023-04-01T00:23:09;99098.09;;;10.76;78.69
77005;BME280;67261;53.132;18.006;2023-04-01T00:25:36;99099.78;;;10.75;78.72
77005;BME280;67261;53.132;18.006;2023-04-01T00:28:09;99097.16;;;10.72;78.77
77005;BME280;67261;53.132;18.006;2023-04-01T00:30:36;99092.23;;;10.68;78.79
77005;BME280;67261;53.132;18.006;2023-04-01T00:33:04;99097.81;;;10.65;78.91
77005;BME280;67261;53.132;18.006;2023-04-01T00:35:31;99093.35;;;10.64;78.92
77005;BME280;67261;53.132;18.006;2023-04-01T00:37:59;99095.02;;;10.63;78.94
77005;BME280;67261;53.132;18.006;2023-04-01T00:40:29;99093.09;;;10.61;79.10
77005;BME280;67261;53.132;18.006;2023-04-01T00:43:02;99094.13;;;10.58;79.20
77005;BME280;67261;53.132;18.006;2023-04-01T00:45:35;99090.72;;;10.56;79.23
77005;BME280;67261;53.132;18.006;2023-04-01T00:48:10;99089.36;;;10.54;79.25
77005;BME280;67261;53.132;18.006;2023-04-01T00:50:42;99090.39;;;10.54;79.20
77005;BME280;67261;53.132;18.006;2023-04-01T00:53:10;99090.35;;;10.55;79.29
77005;BME280;67261;53.132;18.006;2023-04-01T00:55:41;99089.80;;;10.52;79.36
77005;BME280;67261;53.132;18.006;2023-04-01T00:58:14;99090.97;;;10.51;79.40
77005;BME280;67261;53.132;18.006;2023-04-01T01:00:46;99090.05;;;10.53;79.50
77005;BME280;67261;53.132;18.006;2023-04-01T01:03:15;99087.20;;;10.56;79.50
77005;BME280;67261;53.132;18.006;2023-04-01T01:06:09;99086.73;;;10.58;79.45
77005;BME280;67261;53.132;18.006;2023-04-01T01:08:50;99085.66;;;10.61;79.44
77005;BME280;67261;53.132;18.006;2023-04-01T01:11:24;99085.11;;;10.65;79.37
77005;BME280;67261;53.132;18.006;2023-04-01T01:14:39;99082.73;;;10.69;79.29
77005;BME280;67261;53.132;18.006;2023-04-01T01:31:30;99082.27;;;10.50;79.45
77005;BME280;67261;53.132;18.006;2023-04-01T01:36:45;99087.98;;;10.39;79.38
77005;BME280;67261;53.132;18.006;2023-04-01T01:39:16;99085.02;;;10.36;79.35
77005;BME280;67261;53.132;18.006;2023-04-01T01:41:48;99085.35;;;10.35;79.42
77005;BME280;67261;53.132;18.006;2023-04-01T01:44:16;99085.98;;;10.32;79.46
77005;BME280;67261;53.132;18.006;2023-04-01T01:46:47;99086.77;;;10.30;79.41
77005;BME280;67261;53.132;18.006;2023-04-01T01:49:17;99079.56;;;10.27;79.54
77005;BME280;67261;53.132;18.006;2023-04-01T01:51:45;99083.16;;;10.23;79.53
77005;BME280;67261;53.132;18.006;2023-04-01T01:54:17;99083.70;;;10.19;79.65
77005;BME280;67261;53.132;18.006;2023-04-01T01:56:53;99084.52;;;10.14;79.61
77005;BME280;67261;53.132;18.006;2023-04-01T01:59:24;99084.80;;;10.09;79.87
77005;BME280;67261;53.132;18.006;2023-04-01T02:01:56;99083.59;;;10.00;80.06
77005;BME280;67261;53.132;18.006;2023-04-01T02:04:25;99085.77;;;9.94;80.19
77005;BME280;67261;53.132;18.006;2023-04-01T02:06:59;99084.59;;;9.89;80.12
77005;BME280;67261;53.132;18.006;2023-04-01T02:09:29;99086.80;;;9.83;80.37
77005;BME280;67261;53.132;18.006;2023-04-01T02:12:06;99086.84;;;9.78;80.37
77005;BME280;67261;53.132;18.006;2023-04-01T02:15:03;99087.27;;;9.73;80.59
77005;BME280;67261;53.132;18.006;2023-04-01T02:17:30;99084.19;;;9.70;80.49
77005;BME280;67261;53.132;18.006;2023-04-01T02:20:16;99084.95;;;9.65;80.58
77005;BME280;67261;53.132;18.006;2023-04-01T02:22:54;99086.25;;;9.66;80.66
77005;BME280;67261;53.132;18.006;2023-04-01T02:25:27;99085.17;;;9.64;80.78
77005;BME280;67261;53.132;18.006;2023-04-01T02:27:57;99086.91;;;9.61;80.72
77005;BME280;67261;53.132;18.006;2023-04-01T02:30:27;99086.98;;;9.62;80.90
77005;BME280;67261;53.132;18.006;2023-04-01T02:32:57;99090.45;;;9.61;80.77
77005;BME280;67261;53.132;18.006;2023-04-01T02:35:26;99087.32;;;9.57;80.86
77005;BME280;67261;53.132;18.006;2023-04-01T02:37:54;99094.29;;;9.53;80.86
77005;BME280;67261;53.132;18.006;2023-04-01T02:40:22;99097.86;;;9.52;80.83
77005;BME280;67261;53.132;18.006;2023-04-01T02:42:54;99097.83;;;9.50;80.84
77005;BME280;67261;53.132;18.006;2023-04-01T02:45:21;99100.25;;;9.48;81.20
77005;BME280;67261;53.132;18.006;2023-04-01T02:47:51;99098.35;;;9.45;80.94
77005;BME280;67261;53.132;18.006;2023-04-01T02:50:18;99105.81;;;9.43;81.23
77005;BME280;67261;53.132;18.006;2023-04-01T02:52:45;99107.48;;;9.40;81.04
77005;BME280;67261;53.132;18.006;2023-04-01T02:55:15;99110.39;;;9.38;80.96
77005;BME280;67261;53.132;18.006;2023-04-01T02:57:42;99111.03;;;9.37;81.03
77005;BME280;67261;53.132;18.006;2023-04-01T03:00:14;99115.65;;;9.35;81.27
77005;BME280;67261;53.132;18.006;2023-04-01T03:02:41;99115.81;;;9.34;81.00
77005;BME280;67261;53.132;18.006;2023-04-01T03:05:08;99113.33;;;9.34;80.99
77005;BME280;67261;53.132;18.006;2023-04-01T03:07:35;99119.31;;;9.34;80.88
77005;BME280;67261;53.132;18.006;2023-04-01T03:10:04;99121.27;;;9.35;80.84
77005;BME280;67261;53.132;18.006;2023-04-01T03:12:31;99125.05;;;9.35;81.07
77005;BME280;67261;53.132;18.006;2023-04-01T03:15:01;99122.47;;;9.33;81.02
77005;BME280;67261;53.132;18.006;2023-04-01T03:17:28;99128.05;;;9.30;81.36
77005;BME280;67261;53.132;18.006;2023-04-01T03:20:01;99128.52;;;9.25;81.51
77005;BME280;67261;53.132;18.006;2023-04-01T03:22:42;99125.77;;;9.20;81.29
77005;BME280;67261;53.132;18.006;2023-04-01T03:25:25;99132.89;;;9.17;81.19
77005;BME280;67261;53.132;18.006;2023-04-01T03:28:14;99131.05;;;9.13;81.51
77005;BME280;67261;53.132;18.006;2023-04-01T03:30:54;99134.90;;;9.09;81.83
77005;BME280;67261;53.132;18.006;2023-04-01T03:33:29;99133.15;;;9.05;81.18
77005;BME280;67261;53.132;18.006;2023-04-01T03:36:04;99137.02;;;9.03;81.46
77005;BME280;67261;53.132;18.006;2023-04-01T03:38:37;99137.81;;;8.99;81.38
77005;BME280;67261;53.132;18.006;2023-04-01T03:41:05;99142.42;;;8.96;81.77
77005;BME280;67261;53.132;18.006;2023-04-01T03:43:41;99143.31;;;8.93;81.72
77005;BME280;67261;53.132;18.006;2023-04-01T03:46:20;99144.94;;;8.90;81.82
77005;BME280;67261;53.132;18.006;2023-04-01T03:48:47;99147.64;;;8.83;81.94
77005;BME280;67261;53.132;18.006;2023-04-01T03:51:17;99150.85;;;8.77;81.86
77005;BME280;67261;53.132;18.006;2023-04-01T03:53:44;99152.15;;;8.74;81.80
77005;BME280;67261;53.132;18.006;2023-04-01T03:56:11;99156.14;;;8.72;81.81
77005;BME280;67261;53.132;18.006;2023-04-01T03:58:41;99158.75;;;8.67;82.00
77005;BME280;67261;53.132;18.006;2023-04-01T04:01:21;99160.98;;;8.63;82.14
77005;BME280;67261;53.132;18.006;2023-04-01T04:03:49;99161.05;;;8.58;82.18
77005;BME280;67261;53.132;18.006;2023-04-01T04:06:17;99161.88;;;8.51;82.37
77005;BME280;67261;53.132;18.006;2023-04-01T04:08:45;99161.27;;;8.49;81.94
77005;BME280;67261;53.132;18.006;2023-04-01T04:11:16;99166.50;;;8.51;82.05
77005;BME280;67261;53.132;18.006;2023-04-01T04:13:44;99170.39;;;8.49;82.00
77005;BME280;67261;53.132;18.006;2023-04-01T04:16:11;99176.70;;;8.48;82.32
77005;BME280;67261;53.132;18.006;2023-04-01T04:18:42;99174.30;;;8.44;82.27
77005;BME280;67261;53.132;18.006;2023-04-01T04:21:15;99182.26;;;8.44;81.99
77005;BME280;67261;53.132;18.006;2023-04-01T04:23:53;99178.45;;;8.45;82.11
77005;BME280;67261;53.132;18.006;2023-04-01T04:26:21;99180.17;;;8.47;82.19
77005;BME280;67261;53.132;18.006;2023-04-01T04:28:54;99180.58;;;8.48;82.09
77005;BME280;67261;53.132;18.006;2023-04-01T04:31:24;99184.88;;;8.50;82.05
77005;BME280;67261;53.132;18.006;2023-04-01T04:33:53;99191.36;;;8.46;82.17
77005;BME280;67261;53.132;18.006;2023-04-01T04:36:24;99196.89;;;8.39;81.98
77005;BME280;67261;53.132;18.006;2023-04-01T04:38:51;99199.89;;;8.33;82.07
77005;BME280;67261;53.132;18.006;2023-04-01T04:41:20;99203.63;;;8.32;82.03
77005;BME280;67261;53.132;18.006;2023-04-01T04:43:55;99203.25;;;8.27;82.08
77005;BME280;67261;53.132;18.006;2023-04-01T04:46:24;99209.90;;;8.20;82.14
77005;BME280;67261;53.132;18.006;2023-04-01T04:48:57;99212.90;;;8.13;82.18
77005;BME280;67261;53.132;18.006;2023-04-01T04:51:24;99213.80;;;8.09;82.30
77005;BME280;67261;53.132;18.006;2023-04-01T04:53:51;99225.02;;;8.05;82.30
77005;BME280;67261;53.132;18.006;2023-04-01T04:56:20;99223.20;;;7.99;82.23
77005;BME280;67261;53.132;18.006;2023-04-01T04:58:54;99224.14;;;7.96;82.19
77005;BME280;67261;53.132;18.006;2023-04-01T05:01:25;99230.90;;;7.92;82.22
77005;BME280;67261;53.132;18.006;2023-04-01T05:03:55;99228.71;;;7.86;82.32
77005;BME280;67261;53.132;18.006;2023-04-01T05:06:22;99232.92;;;7.83;82.26
77005;BME280;67261;53.132;18.006;2023-04-01T05:08:50;99234.82;;;7.82;82.33
77005;BME280;67261;53.132;18.006;2023-04-01T05:11:18;99236.90;;;7.80;82.37
77005;BME280;67261;53.132;18.006;2023-04-01T05:13:46;99239.09;;;7.77;82.46
77005;BME280;67261;53.132;18.006;2023-04-01T05:16:16;99243.02;;;7.77;82.21
77005;BME280;67261;53.132;18.006;2023-04-01T05:18:45;99247.25;;;7.78;82.40
77005;BME280;67261;53.132;18.006;2023-04-01T05:21:15;99243.91;;;7.78;82.38
77005;BME280;67261;53.132;18.006;2023-04-01T05:23:43;99249.04;;;7.78;82.20
77005;BME280;67261;53.132;18.006;2023-04-01T05:26:12;99253.19;;;7.79;82.65
77005;BME280;67261;53.132;18.006;2023-04-01T05:28:46;99257.32;;;7.76;82.61
77005;BME280;67261;53.132;18.006;2023-04-01T05:31:15;99257.95;;;7.74;82.38
77005;BME280;67261;53.132;18.006;2023-04-01T05:33:45;99259.16;;;7.73;82.68
77005;BME280;67261;53.132;18.006;2023-04-01T05:36:16;99259.55;;;7.71;82.45
77005;BME280;67261;53.132;18.006;2023-04-01T05:38:45;99259.40;;;7.67;82.30
77005;BME280;67261;53.132;18.006;2023-04-01T05:41:17;99267.02;;;7.63;82.04
77005;BME280;67261;53.132;18.006;2023-04-01T05:43:47;99265.83;;;7.61;82.08
77005;BME280;67261;53.132;18.006;2023-04-01T05:46:46;99270.69;;;7.59;82.13
77005;BME280;67261;53.132;18.006;2023-04-01T05:49:23;99263.96;;;7.55;81.96
77005;BME280;67261;53.132;18.006;2023-04-01T05:51:51;99264.98;;;7.57;81.70
77005;BME280;67261;53.132;18.006;2023-04-01T05:54:19;99275.73;;;7.61;81.60
77005;BME280;67261;53.132;18.006;2023-04-01T05:56:46;99283.32;;;7.61;81.18
77005;BME280;67261;53.132;18.006;2023-04-01T05:59:13;99282.02;;;7.57;81.11
77005;BME280;67261;53.132;18.006;2023-04-01T06:01:41;99281.42;;;7.51;81.29
77005;BME280;67261;53.132;18.006;2023-04-01T06:04:13;99283.30;;;7.49;81.32
77005;BME280;67261;53.132;18.006;2023-04-01T06:06:41;99287.70;;;7.50;81.19
77005;BME280;67261;53.132;18.006;2023-04-01T06:09:27;99287.86;;;7.52;81.16
77005;BME280;67261;53.132;18.006;2023-04-01T06:15:13;99292.97;;;7.58;81.07
77005;BME280;67261;53.132;18.006;2023-04-01T06:20:54;99295.70;;;7.60;80.73
77005;BME280;67261;53.132;18.006;2023-04-01T06:41:14;99314.95;;;7.85;79.90
77005;BME280;67261;53.132;18.006;2023-04-01T06:56:32;99331.95;;;7.97;79.09
77005;BME280;67261;53.132;18.006;2023-04-01T06:59:10;99331.80;;;7.96;78.99
77005;BME280;67261;53.132;18.006;2023-04-01T07:01:53;99334.66;;;7.96;78.83
77005;BME280;67261;53.132;18.006;2023-04-01T07:04:43;99338.55;;;7.95;78.93
77005;BME280;67261;53.132;18.006;2023-04-01T07:07:30;99339.45;;;7.96;79.07
77005;BME280;67261;53.132;18.006;2023-04-01T07:10:10;99344.14;;;7.96;79.15
77005;BME280;67261;53.132;18.006;2023-04-01T07:12:58;99348.33;;;8.02;79.07
77005;BME280;67261;53.132;18.006;2023-04-01T07:24:11;99359.98;;;8.03;79.03
77005;BME280;67261;53.132;18.006;2023-04-01T07:26:52;99363.20;;;8.07;79.13
77005;BME280;67261;53.132;18.006;2023-04-01T07:29:24;99359.88;;;8.10;78.76
77005;BME280;67261;53.132;18.006;2023-04-01T07:32:23;99360.09;;;8.14;78.81
77005;BME280;67261;53.132;18.006;2023-04-01T07:49:08;99385.12;;;8.24;78.08
77005;BME280;67261;53.132;18.006;2023-04-01T08:12:02;99420.94;;;8.14;77.83
77005;BME280;67261;53.132;18.006;2023-04-01T08:18:13;99428.08;;;7.99;78.07
77005;BME280;67261;53.132;18.006;2023-04-01T08:21:05;99434.82;;;7.95;77.92
77005;BME280;67261;53.132;18.006;2023-04-01T08:23:47;99437.63;;;7.92;78.06
77005;BME280;67261;53.132;18.006;2023-04-01T08:29:20;99442.87;;;8.00;78.04
77005;BME280;67261;53.132;18.006;2023-04-01T08:32:03;99440.25;;;8.08;77.94
77005;BME280;67261;53.132;18.006;2023-04-01T08:34:42;99441.04;;;8.17;77.83
77005;BME280;67261;53.132;18.006;2023-04-01T08:37:22;99445.48;;;8.23;77.55
77005;BME280;67261;53.132;18.006;2023-04-01T08:39:58;99449.80;;;8.28;77.34
77005;BME280;67261;53.132;18.006;2023-04-01T08:43:07;99448.95;;;8.33;76.94
77005;BME280;67261;53.132;18.006;2023-04-01T09:02:49;99474.15;;;8.98;75.08
77005;BME280;67261;53.132;18.006;2023-04-01T09:35:38;99498.84;;;9.25;73.56
77005;BME280;67261;53.132;18.006;2023-04-01T09:38:23;99502.55;;;9.20;73.32
77005;BME280;67261;53.132;18.006;2023-04-01T09:41:15;99506.89;;;9.17;73.78
77005;BME280;67261;53.132;18.006;2023-04-01T09:52:57;99521.05;;;9.14;74.19
77005;BME280;67261;53.132;18.006;2023-04-01T10:01:26;99527.69;;;9.10;73.88
77005;BME280;67261;53.132;18.006;2023-04-01T10:32:17;99552.07;;;9.34;73.06
77005;BME280;67261;53.132;18.006;2023-04-01T10:37:52;99560.85;;;9.25;72.80
77005;BME280;67261;53.132;18.006;2023-04-01T10:55:18;99566.75;;;9.89;70.91
77005;BME280;67261;53.132;18.006;2023-04-01T11:14:38;99581.90;;;9.60;71.11
77005;BME280;67261;53.132;18.006;2023-04-01T11:31:36;99601.97;;;9.53;71.24
77005;BME280;67261;53.132;18.006;2023-04-01T11:44:27;99625.46;;;9.32;71.67
77005;BME280;67261;53.132;18.006;2023-04-01T11:47:38;99628.80;;;9.30;71.47
77005;BME280;67261;53.132;18.006;2023-04-01T12:00:40;99633.40;;;9.77;70.89
77005;BME280;67261;53.132;18.006;2023-04-01T12:12:59;99649.39;;;9.65;69.90
77005;BME280;67261;53.132;18.006;2023-04-01T12:15:29;99651.55;;;9.52;70.39
77005;BME280;67261;53.132;18.006;2023-04-01T12:18:43;99652.58;;;9.50;70.78
77005;BME280;67261;53.132;18.006;2023-04-01T12:21:58;99655.45;;;9.50;70.30
77005;BME280;67261;53.132;18.006;2023-04-01T12:39:29;99678.83;;;9.61;70.01
77005;BME280;67261;53.132;18.006;2023-04-01T12:57:36;99691.86;;;9.75;68.52
77005;BME280;67261;53.132;18.006;2023-04-01T13:15:27;99722.20;;;9.82;67.67
77005;BME280;67261;53.132;18.006;2023-04-01T13:18:28;99727.55;;;9.72;67.25
77005;BME280;67261;53.132;18.006;2023-04-01T13:33:18;99738.00;;;9.73;68.03
77005;BME280;67261;53.132;18.006;2023-04-01T13:42:12;99743.59;;;9.51;68.24
77005;BME280;67261;53.132;18.006;2023-04-01T13:52:24;99765.14;;;9.23;68.20
77005;BME280;67261;53.132;18.006;2023-04-01T14:03:32;99778.66;;;9.03;68.36
77005;BME280;67261;53.132;18.006;2023-04-01T14:06:49;99783.11;;;8.99;68.67
77005;BME280;67261;53.132;18.006;2023-04-01T14:09:38;99787.17;;;8.99;68.37
77005;BME280;67261;53.132;18.006;2023-04-01T14:15:14;99792.73;;;8.89;68.59
77005;BME280;67261;53.132;18.006;2023-04-01T14:21:07;99794.91;;;8.80;69.04
77005;BME280;67261;53.132;18.006;2023-04-01T14:24:07;99796.70;;;8.75;68.84
77005;BME280;67261;53.132;18.006;2023-04-01T14:38:06;99809.47;;;8.54;68.81
77005;BME280;67261;53.132;18.006;2023-04-01T14:40:51;99820.59;;;8.55;68.60
77005;BME280;67261;53.132;18.006;2023-04-01T14:49:49;99828.14;;;8.37;68.91
77005;BME280;67261;53.132;18.006;2023-04-01T14:52:31;99834.04;;;8.31;68.89
77005;BME280;67261;53.132;18.006;2023-04-01T14:55:15;99842.36;;;8.26;68.70
77005;BME280;67261;53.132;18.006;2023-04-01T14:57:58;99846.11;;;8.15;68.94
77005;BME280;67261;53.132;18.006;2023-04-01T15:00:25;99852.57;;;8.10;69.09
77005;BME280;67261;53.132;18.006;2023-04-01T15:08:32;99867.83;;;8.06;69.10
77005;BME280;67261;53.132;18.006;2023-04-01T15:11:32;99872.04;;;7.99;68.90
77005;BME280;67261;53.132;18.006;2023-04-01T15:14:51;99878.70;;;7.90;69.03
77005;BME280;67261;53.132;18.006;2023-04-01T15:23:40;99890.62;;;7.59;69.48
77005;BME280;67261;53.132;18.006;2023-04-01T15:31:50;99908.60;;;7.33;69.76
77005;BME280;67261;53.132;18.006;2023-04-01T15:34:43;99908.92;;;7.25;69.81
77005;BME280;67261;53.132;18.006;2023-04-01T15:42:36;99922.77;;;7.16;70.08
77005;BME280;67261;53.132;18.006;2023-04-01T15:58:55;99945.69;;;6.77;70.82
77005;BME280;67261;53.132;18.006;2023-04-01T16:02:18;99950.47;;;6.67;71.17
77005;BME280;67261;53.132;18.006;2023-04-01T16:10:17;99962.68;;;6.55;71.78
77005;BME280;67261;53.132;18.006;2023-04-01T16:15:57;99971.36;;;6.49;71.86
77005;BME280;67261;53.132;18.006;2023-04-01T16:25:25;99998.04;;;6.40;71.41
77005;BME280;67261;53.132;18.006;2023-04-01T16:30:40;100005.67;;;6.23;71.15
77005;BME280;67261;53.132;18.006;2023-04-01T16:36:41;100013.49;;;6.12;71.46
77005;BME280;67261;53.132;18.006;2023-04-01T16:39:33;100014.50;;;6.08;71.85
77005;BME280;67261;53.132;18.006;2023-04-01T16:49:03;100035.48;;;5.99;72.04
77005;BME280;67261;53.132;18.006;2023-04-01T16:54:58;100040.44;;;5.90;72.43
77005;BME280;67261;53.132;18.006;2023-04-01T16:57:46;100048.88;;;5.87;72.42
77005;BME280;67261;53.132;18.006;2023-04-01T17:08:51;100062.89;;;5.62;72.08
77005;BME280;67261;53.132;18.006;2023-04-01T17:17:06;100079.03;;;5.49;71.69
77005;BME280;67261;53.132;18.006;2023-04-01T17:22:32;100091.14;;;5.39;72.02
77005;BME280;67261;53.132;18.006;2023-04-01T17:31:25;100101.85;;;5.29;71.84
77005;BME280;67261;53.132;18.006;2023-04-01T17:39:49;100121.04;;;5.22;72.24
77005;BME280;67261;53.132;18.006;2023-04-01T17:42:56;100122.71;;;5.19;72.54
77005;BME280;67261;53.132;18.006;2023-04-01T17:45:49;100133.71;;;5.16;72.53
77005;BME280;67261;53.132;18.006;2023-04-01T17:48:38;100137.48;;;5.09;72.89
77005;BME280;67261;53.132;18.006;2023-04-01T17:53:56;100147.73;;;5.06;72.90
77005;BME280;67261;53.132;18.006;2023-04-01T18:04:58;100160.73;;;5.00;73.70
77005;BME280;67261;53.132;18.006;2023-04-01T18:13:23;100173.56;;;4.95;74.12
77005;BME280;67261;53.132;18.006;2023-04-01T18:24:16;100191.05;;;4.81;74.75
77005;BME280;67261;53.132;18.006;2023-04-01T18:26:50;100201.23;;;4.77;75.37
77005;BME280;67261;53.132;18.006;2023-04-01T18:40:36;100213.29;;;4.57;75.60
77005;BME280;67261;53.132;18.006;2023-04-01T18:46:19;100215.39;;;4.55;75.59
77005;BME280;67261;53.132;18.006;2023-04-01T18:48:57;100219.50;;;4.54;75.77
77005;BME280;67261;53.132;18.006;2023-04-01T18:51:49;100229.02;;;4.53;75.73
77005;BME280;67261;53.132;18.006;2023-04-01T18:54:43;100228.34;;;4.55;75.50
77005;BME280;67261;53.132;18.006;2023-04-01T18:57:18;100230.26;;;4.59;75.46
77005;BME280;67261;53.132;18.006;2023-04-01T18:59:53;100234.88;;;4.60;75.66
77005;BME280;67261;53.132;18.006;2023-04-01T19:05:16;100252.02;;;4.56;75.95
77005;BME280;67261;53.132;18.006;2023-04-01T19:07:53;100247.85;;;4.52;75.99
77005;BME280;67261;53.132;18.006;2023-04-01T19:18:43;100263.16;;;4.45;75.97
77005;BME280;67261;53.132;18.006;2023-04-01T19:21:29;100263.40;;;4.42;76.12
77005;BME280;67261;53.132;18.006;2023-04-01T19:32:55;100285.64;;;4.33;76.08
77005;BME280;67261;53.132;18.006;2023-04-01T19:56:19;100318.70;;;4.21;76.69
77005;BME280;67261;53.132;18.006;2023-04-01T20:01:27;100322.48;;;4.18;76.82
77005;BME280;67261;53.132;18.006;2023-04-01T20:09:54;100333.45;;;4.08;77.28
77005;BME280;67261;53.132;18.006;2023-04-01T20:15:36;100336.29;;;4.01;77.16
77005;BME280;67261;53.132;18.006;2023-04-01T20:18:24;100347.08;;;4.01;77.38
77005;BME280;67261;53.132;18.006;2023-04-01T20:23:56;100353.63;;;4.01;77.47
77005;BME280;67261;53.132;18.006;2023-04-01T20:26:43;100358.00;;;4.01;77.34
77005;BME280;67261;53.132;18.006;2023-04-01T20:34:58;100364.29;;;3.99;77.56
77005;BME280;67261;53.132;18.006;2023-04-01T20:41:02;100362.27;;;4.04;77.37
77005;BME280;67261;53.132;18.006;2023-04-01T20:43:54;100370.93;;;4.07;77.28
77005;BME280;67261;53.132;18.006;2023-04-01T20:49:45;100373.55;;;4.07;77.20
77005;BME280;67261;53.132;18.006;2023-04-01T20:52:29;100372.50;;;4.10;77.30
77005;BME280;67261;53.132;18.006;2023-04-01T20:55:20;100379.44;;;4.10;77.11
77005;BME280;67261;53.132;18.006;2023-04-01T21:15:46;100395.12;;;4.09;76.25
77005;BME280;67261;53.132;18.006;2023-04-01T21:21:36;100402.48;;;4.11;76.28
77005;BME280;67261;53.132;18.006;2023-04-01T21:29:51;100411.89;;;4.23;76.15
77005;BME280;67261;53.132;18.006;2023-04-01T21:36:10;100413.94;;;4.21;75.88
77005;BME280;67261;53.132;18.006;2023-04-01T21:44:13;100421.91;;;4.18;76.14
77005;BME280;67261;53.132;18.006;2023-04-01T21:47:13;100425.64;;;4.17;76.07
77005;BME280;67261;53.132;18.006;2023-04-01T21:50:27;100428.17;;;4.14;76.12
77005;BME280;67261;53.132;18.006;2023-04-01T21:53:17;100441.33;;;4.07;76.11
77005;BME280;67261;53.132;18.006;2023-04-01T21:58:40;100431.56;;;3.98;76.31
77005;BME280;67261;53.132;18.006;2023-04-01T22:02:09;100433.38;;;3.99;76.42
77005;BME280;67261;53.132;18.006;2023-04-01T22:07:26;100434.61;;;4.03;76.15
77005;BME280;67261;53.132;18.006;2023-04-01T22:13:29;100442.81;;;4.08;76.27
77005;BME280;67261;53.132;18.006;2023-04-01T22:18:46;100439.92;;;4.05;76.27
77005;BME280;67261;53.132;18.006;2023-04-01T22:21:46;100442.98;;;4.06;76.35
77005;BME280;67261;53.132;18.006;2023-04-01T22:24:28;100448.83;;;4.08;76.19
77005;BME280;67261;53.132;18.006;2023-04-01T22:27:36;100454.19;;;4.08;76.33
77005;BME280;67261;53.132;18.006;2023-04-01T22:30:26;100454.83;;;4.07;76.28
77005;BME280;67261;53.132;18.006;2023-04-01T22:33:17;100461.02;;;4.06;76.33
77005;BME280;67261;53.132;18.006;2023-04-01T22:36:13;100460.66;;;4.04;76.42
77005;BME280;67261;53.132;18.006;2023-04-01T22:50:42;100482.27;;;4.18;76.06
77005;BME280;67261;53.132;18.006;2023-04-01T22:55:54;100480.84;;;4.17;76.19
77005;BME280;67261;53.132;18.006;2023-04-01T22:58:31;100481.08;;;4.20;76.23
77005;BME280;67261;53.132;18.006;2023-04-01T23:01:05;100484.06;;;4.22;76.29
77005;BME280;67261;53.132;18.006;2023-04-01T23:03:41;100487.00;;;4.23;76.22
77005;BME280;67261;53.132;18.006;2023-04-01T23:06:41;100487.59;;;4.22;75.92
77005;BME280;67261;53.132;18.006;2023-04-01T23:09:16;100491.61;;;4.20;75.83
77005;BME280;67261;53.132;18.006;2023-04-01T23:11:51;100495.19;;;4.17;75.79
77005;BME280;67261;53.132;18.006;2023-04-01T23:14:34;100497.70;;;4.16;76.01
77005;BME280;67261;53.132;18.006;2023-04-01T23:17:33;100498.68;;;4.17;75.84
77005;BME280;67261;53.132;18.006;2023-04-01T23:20:24;100499.80;;;4.18;75.71
77005;BME280;67261;53.132;18.006;2023-04-01T23:29:04;100514.71;;;4.11;75.72
77005;BME280;67261;53.132;18.006;2023-04-01T23:31:42;100520.27;;;4.09;75.87
77005;BME280;67261;53.132;18.006;2023-04-01T23:36:52;100527.36;;;4.06;75.71
77005;BME280;67261;53.132;18.006;2023-04-01T23:41:58;100531.55;;;4.06;75.44
77005;BME280;67261;53.132;18.006;2023-04-01T23:44:27;100533.37;;;4.03;75.40
77005;BME280;67261;53.132;18.006;2023-04-01T23:46:59;100537.05;;;4.03;75.43
77005;BME280;67261;53.132;18.006;2023-04-01T23:49:32;100541.48;;;4.02;75.30
77005;BME280;67261;53.132;18.006;2023-04-01T23:52:24;100545.70;;;4.02;75.21
77005;BME280;67261;53.132;18.006;2023-04-01T23:55:26;100550.07;;;4.00;75.26
77005;BME280;67261;53.132;18.006;2023-04-01T23:58:21;100548.75;;;3.99;75.17
